sensor_id;sensor_type;location;lat;lon;timestamp;temperature;humidity
12287;DHT22;6206;53.100;11.098;2022-10-16T00:00:40;15.50;99.90
12287;DHT22;6206;53.100;11.098;2022-10-16T00:03:07;15.40;99.90
12287;DHT22;6206;53.100;11.098;2022-10-16T00:05:39;15.40;99.90
12287;DHT22;6206;53.100;11.098;2022-10-16T00:08:07;15.30;99.90
12287;DHT22;6206;53.100;11.098;2022-10-16T00:10:34;15.30;99.90
12287;DHT22;6206;53.100;11.098;2022-10-16T00:13:03;15.30;99.90
12287;DHT22;6206;53.100;11.098;2022-10-16T00:15:30;15.30;99.90
12287;DHT22;6206;53.100;11.098;2022-10-16T00:17:57;15.30;99.90
12287;DHT22;6206;53.100;11.098;2022-10-16T00:20:23;15.20;99.90
12287;DHT22;6206;53.100;11.098;2022-10-16T00:22:50;15.20;99.90
12287;DHT22;6206;53.100;11.098;2022-10-16T00:25:17;15.20;99.90
12287;DHT22;6206;53.100;11.098;2022-10-16T00:27:44;15.20;99.90
12287;DHT22;6206;53.100;11.098;2022-10-16T00:30:12;15.20;99.90
12287;DHT22;6206;53.100;11.098;2022-10-16T00:32:39;15.50;99.90
12287;DHT22;6206;53.100;11.098;2022-10-16T00:35:06;15.10;99.90
12287;DHT22;6206;53.100;11.098;2022-10-16T00:37:32;15.10;99.90
12287;DHT22;6206;53.100;11.098;2022-10-16T00:39:59;15.10;99.90
12287;DHT22;6206;53.100;11.098;2022-10-16T00:42:26;15.00;99.90
12287;DHT22;6206;53.100;11.098;2022-10-16T00:44:55;15.10;99.90
12287;DHT22;6206;53.100;11.098;2022-10-16T00:47:27;15.00;99.90
12287;DHT22;6206;53.100;11.098;2022-10-16T00:49:59;16.00;99.90
12287;DHT22;6206;53.100;11.098;2022-10-16T00:52:26;14.90;99.90
12287;DHT22;6206;53.100;11.098;2022-10-16T00:54:54;14.80;99.90
12287;DHT22;6206;53.100;11.098;2022-10-16T00:57:21;14.80;99.90
12287;DHT22;6206;53.100;11.098;2022-10-16T00:59:48;14.70;99.90
12287;DHT22;6206;53.100;11.098;2022-10-16T01:02:16;14.70;99.90
12287;DHT22;6206;53.100;11.098;2022-10-16T01:04:47;14.60;99.90
12287;DHT22;6206;53.100;11.098;2022-10-16T01:07:22;14.50;99.90
12287;DHT22;6206;53.100;11.098;2022-10-16T01:10:02;14.50;99.90
12287;DHT22;6206;53.100;11.098;2022-10-16T01:12:38;14.40;99.90
12287;DHT22;6206;53.100;11.098;2022-10-16T01:15:12;14.30;99.90
12287;DHT22;6206;53.100;11.098;2022-10-16T01:17:44;14.20;99.90
12287;DHT22;6206;53.100;11.098;2022-10-16T01:20:20;14.20;99.90
12287;DHT22;6206;53.100;11.098;2022-10-16T01:22:59;14.20;99.90
12287;DHT22;6206;53.100;11.098;2022-10-16T01:25:36;14.00;99.90
12287;DHT22;6206;53.100;11.098;2022-10-16T01:28:09;14.00;99.90
12287;DHT22;6206;53.100;11.098;2022-10-16T01:30:37;14.00;99.90
12287;DHT22;6206;53.100;11.098;2022-10-16T01:33:10;14.00;99.90
12287;DHT22;6206;53.100;11.098;2022-10-16T01:35:42;13.90;99.90
12287;DHT22;6206;53.100;11.098;2022-10-16T01:38:14;13.90;99.90
12287;DHT22;6206;53.100;11.098;2022-10-16T01:40:45;13.80;99.90
12287;DHT22;6206;53.100;11.098;2022-10-16T01:43:15;13.80;99.90
12287;DHT22;6206;53.100;11.098;2022-10-16T01:45:45;13.60;99.90
12287;DHT22;6206;53.100;11.098;2022-10-16T01:48:13;13.60;99.90
12287;DHT22;6206;53.100;11.098;2022-10-16T01:50:43;13.70;99.90
12287;DHT22;6206;53.100;11.098;2022-10-16T01:53:12;13.80;99.90
12287;DHT22;6206;53.100;11.098;2022-10-16T01:55:44;13.70;99.90
12287;DHT22;6206;53.100;11.098;2022-10-16T01:58:15;13.60;99.90
12287;DHT22;6206;53.100;11.098;2022-10-16T02:00:44;13.50;99.90
12287;DHT22;6206;53.100;11.098;2022-10-16T02:03:13;13.50;99.90
12287;DHT22;6206;53.100;11.098;2022-10-16T02:05:42;13.60;99.90
12287;DHT22;6206;53.100;11.098;2022-10-16T02:08:11;13.70;99.90
12287;DHT22;6206;53.100;11.098;2022-10-16T02:10:39;13.70;99.90
12287;DHT22;6206;53.100;11.098;2022-10-16T02:13:10;13.70;99.90
12287;DHT22;6206;53.100;11.098;2022-10-16T02:15:38;13.60;99.90
12287;DHT22;6206;53.100;11.098;2022-10-16T02:18:06;13.50;99.90
12287;DHT22;6206;53.100;11.098;2022-10-16T02:20:38;13.30;99.90
12287;DHT22;6206;53.100;11.098;2022-10-16T02:23:07;14.00;99.90
12287;DHT22;6206;53.100;11.098;2022-10-16T02:25:40;13.30;99.90
12287;DHT22;6206;53.100;11.098;2022-10-16T02:28:15;13.30;99.90
12287;DHT22;6206;53.100;11.098;2022-10-16T02:30:46;13.10;99.90
12287;DHT22;6206;53.100;11.098;2022-10-16T02:33:16;13.20;99.90
12287;DHT22;6206;53.100;11.098;2022-10-16T02:35:46;13.20;99.90
12287;DHT22;6206;53.100;11.098;2022-10-16T02:38:14;13.20;99.90
12287;DHT22;6206;53.100;11.098;2022-10-16T02:40:42;13.20;99.90
12287;DHT22;6206;53.100;11.098;2022-10-16T02:43:09;13.10;99.90
12287;DHT22;6206;53.100;11.098;2022-10-16T02:45:37;13.10;99.90
12287;DHT22;6206;53.100;11.098;2022-10-16T02:48:05;13.10;99.90
12287;DHT22;6206;53.100;11.098;2022-10-16T02:50:32;13.00;99.90
12287;DHT22;6206;53.100;11.098;2022-10-16T02:52:59;12.90;99.90
12287;DHT22;6206;53.100;11.098;2022-10-16T02:55:26;12.80;99.90
12287;DHT22;6206;53.100;11.098;2022-10-16T02:57:54;12.80;99.90
12287;DHT22;6206;53.100;11.098;2022-10-16T03:00:21;12.90;99.90
12287;DHT22;6206;53.100;11.098;2022-10-16T03:02:48;12.90;99.90
12287;DHT22;6206;53.100;11.098;2022-10-16T03:05:16;14.30;99.90
12287;DHT22;6206;53.100;11.098;2022-10-16T03:07:43;12.00;99.90
12287;DHT22;6206;53.100;11.098;2022-10-16T03:10:10;12.90;99.90
12287;DHT22;6206;53.100;11.098;2022-10-16T03:12:39;12.90;99.90
12287;DHT22;6206;53.100;11.098;2022-10-16T03:15:07;12.90;99.90
12287;DHT22;6206;53.100;11.098;2022-10-16T03:17:34;12.90;99.90
12287;DHT22;6206;53.100;11.098;2022-10-16T03:20:01;12.70;99.90
12287;DHT22;6206;53.100;11.098;2022-10-16T03:22:29;12.50;99.90
12287;DHT22;6206;53.100;11.098;2022-10-16T03:24:56;12.40;99.90
12287;DHT22;6206;53.100;11.098;2022-10-16T03:27:22;12.30;99.90
12287;DHT22;6206;53.100;11.098;2022-10-16T03:29:49;14.20;99.90
12287;DHT22;6206;53.100;11.098;2022-10-16T03:32:16;12.40;99.90
12287;DHT22;6206;53.100;11.098;2022-10-16T03:34:43;12.50;99.90
12287;DHT22;6206;53.100;11.098;2022-10-16T03:37:10;13.30;99.90
12287;DHT22;6206;53.100;11.098;2022-10-16T03:39:38;12.60;99.90
12287;DHT22;6206;53.100;11.098;2022-10-16T03:42:05;12.60;99.90
12287;DHT22;6206;53.100;11.098;2022-10-16T03:44:32;12.60;99.90
12287;DHT22;6206;53.100;11.098;2022-10-16T03:46:59;12.60;99.90
12287;DHT22;6206;53.100;11.098;2022-10-16T03:49:25;12.60;99.90
12287;DHT22;6206;53.100;11.098;2022-10-16T03:51:52;12.50;99.90
12287;DHT22;6206;53.100;11.098;2022-10-16T03:54:19;12.50;99.90
12287;DHT22;6206;53.100;11.098;2022-10-16T03:56:48;12.50;99.90
12287;DHT22;6206;53.100;11.098;2022-10-16T03:59:15;12.50;99.90
12287;DHT22;6206;53.100;11.098;2022-10-16T04:01:42;12.40;99.90
12287;DHT22;6206;53.100;11.098;2022-10-16T04:04:09;12.20;99.90
12287;DHT22;6206;53.100;11.098;2022-10-16T04:06:35;12.40;99.90
12287;DHT22;6206;53.100;11.098;2022-10-16T04:09:02;12.40;99.90
12287;DHT22;6206;53.100;11.098;2022-10-16T04:11:29;12.40;99.90
12287;DHT22;6206;53.100;11.098;2022-10-16T04:13:57;12.40;99.90
12287;DHT22;6206;53.100;11.098;2022-10-16T04:16:24;12.30;99.90
12287;DHT22;6206;53.100;11.098;2022-10-16T04:18:51;12.30;99.90
12287;DHT22;6206;53.100;11.098;2022-10-16T04:21:17;12.30;99.90
12287;DHT22;6206;53.100;11.098;2022-10-16T04:23:44;12.30;99.90
12287;DHT22;6206;53.100;11.098;2022-10-16T04:26:11;12.30;99.90
12287;DHT22;6206;53.100;11.098;2022-10-16T04:28:37;12.20;99.90
12287;DHT22;6206;53.100;11.098;2022-10-16T04:31:06;12.20;99.90
12287;DHT22;6206;53.100;11.098;2022-10-16T04:33:33;12.20;99.90
12287;DHT22;6206;53.100;11.098;2022-10-16T04:36:00;12.20;99.90
12287;DHT22;6206;53.100;11.098;2022-10-16T04:38:28;12.10;99.90
12287;DHT22;6206;53.100;11.098;2022-10-16T04:40:55;12.10;99.90
12287;DHT22;6206;53.100;11.098;2022-10-16T04:43:22;12.10;99.90
12287;DHT22;6206;53.100;11.098;2022-10-16T04:45:49;12.10;99.90
12287;DHT22;6206;53.100;11.098;2022-10-16T04:48:18;12.10;99.90
12287;DHT22;6206;53.100;11.098;2022-10-16T04:50:45;12.10;99.90
12287;DHT22;6206;53.100;11.098;2022-10-16T04:53:12;12.00;99.90
12287;DHT22;6206;53.100;11.098;2022-10-16T04:55:39;12.00;99.90
12287;DHT22;6206;53.100;11.098;2022-10-16T04:58:07;12.60;99.90
12287;DHT22;6206;53.100;11.098;2022-10-16T05:00:34;14.50;99.90
12287;DHT22;6206;53.100;11.098;2022-10-16T05:03:01;12.10;99.90
12287;DHT22;6206;53.100;11.098;2022-10-16T05:05:32;12.10;99.90
12287;DHT22;6206;53.100;11.098;2022-10-16T05:07:59;12.10;99.90
12287;DHT22;6206;53.100;11.098;2022-10-16T05:10:26;12.10;99.90
12287;DHT22;6206;53.100;11.098;2022-10-16T05:12:53;12.10;99.90
12287;DHT22;6206;53.100;11.098;2022-10-16T05:15:20;12.10;99.90
12287;DHT22;6206;53.100;11.098;2022-10-16T05:17:52;12.00;99.90
12287;DHT22;6206;53.100;11.098;2022-10-16T05:20:19;12.10;99.90
12287;DHT22;6206;53.100;11.098;2022-10-16T05:22:47;12.10;99.90
12287;DHT22;6206;53.100;11.098;2022-10-16T05:25:14;12.00;99.90
12287;DHT22;6206;53.100;11.098;2022-10-16T05:27:40;12.20;99.90
12287;DHT22;6206;53.100;11.098;2022-10-16T05:30:08;12.00;99.90
12287;DHT22;6206;53.100;11.098;2022-10-16T05:32:35;12.00;99.90
12287;DHT22;6206;53.100;11.098;2022-10-16T05:35:01;12.00;99.90
12287;DHT22;6206;53.100;11.098;2022-10-16T05:37:28;12.00;99.90
12287;DHT22;6206;53.100;11.098;2022-10-16T05:39:56;12.00;99.90
12287;DHT22;6206;53.100;11.098;2022-10-16T05:42:23;12.00;99.90
12287;DHT22;6206;53.100;11.098;2022-10-16T05:44:50;12.10;99.90
12287;DHT22;6206;53.100;11.098;2022-10-16T05:47:16;12.10;99.90
12287;DHT22;6206;53.100;11.098;2022-10-16T05:49:46;12.10;99.90
12287;DHT22;6206;53.100;11.098;2022-10-16T05:52:13;12.10;99.90
12287;DHT22;6206;53.100;11.098;2022-10-16T05:54:39;12.10;99.90
12287;DHT22;6206;53.100;11.098;2022-10-16T05:57:07;12.10;99.90
12287;DHT22;6206;53.100;11.098;2022-10-16T05:59:34;12.00;99.90
12287;DHT22;6206;53.100;11.098;2022-10-16T06:02:01;12.00;99.90
12287;DHT22;6206;53.100;11.098;2022-10-16T06:04:28;12.00;99.90
12287;DHT22;6206;53.100;11.098;2022-10-16T06:06:58;12.00;99.90
12287;DHT22;6206;53.100;11.098;2022-10-16T06:09:26;12.00;99.90
12287;DHT22;6206;53.100;11.098;2022-10-16T06:11:52;12.00;99.90
12287;DHT22;6206;53.100;11.098;2022-10-16T06:14:21;12.10;99.90
12287;DHT22;6206;53.100;11.098;2022-10-16T06:16:47;11.90;99.90
12287;DHT22;6206;53.100;11.098;2022-10-16T06:19:14;12.00;99.90
12287;DHT22;6206;53.100;11.098;2022-10-16T06:21:41;12.10;99.90
12287;DHT22;6206;53.100;11.098;2022-10-16T06:24:09;13.10;99.90
12287;DHT22;6206;53.100;11.098;2022-10-16T06:26:36;12.10;99.90
12287;DHT22;6206;53.100;11.098;2022-10-16T06:29:03;12.20;99.90
12287;DHT22;6206;53.100;11.098;2022-10-16T06:31:31;12.10;99.90
12287;DHT22;6206;53.100;11.098;2022-10-16T06:33:59;12.20;99.90
12287;DHT22;6206;53.100;11.098;2022-10-16T06:36:26;12.30;99.90
12287;DHT22;6206;53.100;11.098;2022-10-16T06:38:53;12.40;99.90
12287;DHT22;6206;53.100;11.098;2022-10-16T06:41:22;14.20;99.90
12287;DHT22;6206;53.100;11.098;2022-10-16T06:43:49;12.30;99.90
12287;DHT22;6206;53.100;11.098;2022-10-16T06:46:18;12.40;99.90
12287;DHT22;6206;53.100;11.098;2022-10-16T06:48:46;12.50;99.90
12287;DHT22;6206;53.100;11.098;2022-10-16T06:51:15;12.50;99.90
12287;DHT22;6206;53.100;11.098;2022-10-16T06:53:43;12.50;99.90
12287;DHT22;6206;53.100;11.098;2022-10-16T06:56:11;12.60;99.90
12287;DHT22;6206;53.100;11.098;2022-10-16T06:58:38;12.60;99.90
12287;DHT22;6206;53.100;11.098;2022-10-16T07:01:06;12.70;99.90
12287;DHT22;6206;53.100;11.098;2022-10-16T07:03:33;12.70;99.90
12287;DHT22;6206;53.100;11.098;2022-10-16T07:06:04;12.70;99.90
12287;DHT22;6206;53.100;11.098;2022-10-16T07:08:31;12.70;99.90
12287;DHT22;6206;53.100;11.098;2022-10-16T07:10:59;12.80;99.90
12287;DHT22;6206;53.100;11.098;2022-10-16T07:13:26;12.90;99.90
12287;DHT22;6206;53.100;11.098;2022-10-16T07:15:53;13.00;99.90
12287;DHT22;6206;53.100;11.098;2022-10-16T07:18:19;13.10;99.90
12287;DHT22;6206;53.100;11.098;2022-10-16T07:20:47;13.00;99.90
12287;DHT22;6206;53.100;11.098;2022-10-16T07:23:15;13.10;99.90
12287;DHT22;6206;53.100;11.098;2022-10-16T07:25:42;13.20;99.90
12287;DHT22;6206;53.100;11.098;2022-10-16T07:28:08;13.40;99.90
12287;DHT22;6206;53.100;11.098;2022-10-16T07:30:36;13.40;99.90
12287;DHT22;6206;53.100;11.098;2022-10-16T07:33:03;14.30;99.90
12287;DHT22;6206;53.100;11.098;2022-10-16T07:35:30;13.50;99.90
12287;DHT22;6206;53.100;11.098;2022-10-16T07:37:56;13.50;99.90
12287;DHT22;6206;53.100;11.098;2022-10-16T07:40:25;13.60;99.90
12287;DHT22;6206;53.100;11.098;2022-10-16T07:42:52;13.70;99.90
12287;DHT22;6206;53.100;11.098;2022-10-16T07:45:19;13.70;99.90
12287;DHT22;6206;53.100;11.098;2022-10-16T07:47:46;13.70;99.90
12287;DHT22;6206;53.100;11.098;2022-10-16T07:50:13;13.70;99.90
12287;DHT22;6206;53.100;11.098;2022-10-16T07:52:39;13.70;99.90
12287;DHT22;6206;53.100;11.098;2022-10-16T07:55:07;13.70;99.90
12287;DHT22;6206;53.100;11.098;2022-10-16T07:57:35;13.80;99.90
12287;DHT22;6206;53.100;11.098;2022-10-16T08:00:02;13.80;99.90
12287;DHT22;6206;53.100;11.098;2022-10-16T08:02:29;13.80;99.90
12287;DHT22;6206;53.100;11.098;2022-10-16T08:04:57;13.80;99.90
12287;DHT22;6206;53.100;11.098;2022-10-16T08:07:24;13.90;99.90
12287;DHT22;6206;53.100;11.098;2022-10-16T08:09:51;14.00;99.90
12287;DHT22;6206;53.100;11.098;2022-10-16T08:12:18;14.10;99.90
12287;DHT22;6206;53.100;11.098;2022-10-16T08:14:46;14.20;99.90
12287;DHT22;6206;53.100;11.098;2022-10-16T08:17:14;14.30;99.90
12287;DHT22;6206;53.100;11.098;2022-10-16T08:19:44;14.40;99.90
12287;DHT22;6206;53.100;11.098;2022-10-16T08:22:11;14.40;99.90
12287;DHT22;6206;53.100;11.098;2022-10-16T08:24:37;14.40;99.90
12287;DHT22;6206;53.100;11.098;2022-10-16T08:27:04;14.50;99.90
12287;DHT22;6206;53.100;11.098;2022-10-16T08:29:31;14.60;99.90
12287;DHT22;6206;53.100;11.098;2022-10-16T08:31:59;14.60;99.90
12287;DHT22;6206;53.100;11.098;2022-10-16T08:34:26;14.70;99.90
12287;DHT22;6206;53.100;11.098;2022-10-16T08:36:53;14.80;99.90
12287;DHT22;6206;53.100;11.098;2022-10-16T08:39:19;14.90;99.90
12287;DHT22;6206;53.100;11.098;2022-10-16T08:42:13;15.00;99.90
12287;DHT22;6206;53.100;11.098;2022-10-16T08:45:13;15.10;99.90
12287;DHT22;6206;53.100;11.098;2022-10-16T08:47:49;15.30;99.90
12287;DHT22;6206;53.100;11.098;2022-10-16T08:50:21;15.40;99.90
12287;DHT22;6206;53.100;11.098;2022-10-16T08:52:50;15.50;99.90
12287;DHT22;6206;53.100;11.098;2022-10-16T08:55:30;15.60;99.90
12287;DHT22;6206;53.100;11.098;2022-10-16T08:57:59;15.70;99.90
12287;DHT22;6206;53.100;11.098;2022-10-16T09:00:26;15.70;99.90
12287;DHT22;6206;53.100;11.098;2022-10-16T09:03:03;15.90;99.90
12287;DHT22;6206;53.100;11.098;2022-10-16T09:05:49;16.00;99.90
12287;DHT22;6206;53.100;11.098;2022-10-16T09:08:25;16.10;99.90
12287;DHT22;6206;53.100;11.098;2022-10-16T09:10:57;16.20;99.90
12287;DHT22;6206;53.100;11.098;2022-10-16T09:13:28;16.30;99.90
12287;DHT22;6206;53.100;11.098;2022-10-16T09:16:02;16.30;99.90
12287;DHT22;6206;53.100;11.098;2022-10-16T09:18:43;16.60;99.90
12287;DHT22;6206;53.100;11.098;2022-10-16T09:21:16;17.40;99.90
12287;DHT22;6206;53.100;11.098;2022-10-16T09:23:45;16.80;99.90
12287;DHT22;6206;53.100;11.098;2022-10-16T09:26:13;16.80;99.90
12287;DHT22;6206;53.100;11.098;2022-10-16T09:28:41;16.80;99.90
12287;DHT22;6206;53.100;11.098;2022-10-16T09:31:13;17.50;99.90
12287;DHT22;6206;53.100;11.098;2022-10-16T09:33:47;17.30;99.90
12287;DHT22;6206;53.100;11.098;2022-10-16T09:36:14;17.20;99.90
12287;DHT22;6206;53.100;11.098;2022-10-16T09:38:41;17.20;99.90
12287;DHT22;6206;53.100;11.098;2022-10-16T09:41:16;17.40;99.90
12287;DHT22;6206;53.100;11.098;2022-10-16T09:43:48;17.30;99.90
12287;DHT22;6206;53.100;11.098;2022-10-16T09:46:26;17.40;99.90
12287;DHT22;6206;53.100;11.098;2022-10-16T09:48:57;17.60;99.90
12287;DHT22;6206;53.100;11.098;2022-10-16T09:51:26;17.60;99.90
12287;DHT22;6206;53.100;11.098;2022-10-16T09:53:59;17.00;99.90
12287;DHT22;6206;53.100;11.098;2022-10-16T09:56:28;17.60;99.90
12287;DHT22;6206;53.100;11.098;2022-10-16T09:58:57;17.60;99.90
12287;DHT22;6206;53.100;11.098;2022-10-16T10:01:30;17.80;99.90
12287;DHT22;6206;53.100;11.098;2022-10-16T10:03:59;17.50;99.90
12287;DHT22;6206;53.100;11.098;2022-10-16T10:06:31;17.50;99.90
12287;DHT22;6206;53.100;11.098;2022-10-16T10:09:04;17.60;99.90
12287;DHT22;6206;53.100;11.098;2022-10-16T10:11:39;17.60;99.90
12287;DHT22;6206;53.100;11.098;2022-10-16T10:14:08;17.70;99.90
12287;DHT22;6206;53.100;11.098;2022-10-16T10:16:40;17.80;99.90
12287;DHT22;6206;53.100;11.098;2022-10-16T10:19:14;17.90;99.90
12287;DHT22;6206;53.100;11.098;2022-10-16T10:21:41;18.10;99.90
12287;DHT22;6206;53.100;11.098;2022-10-16T10:24:10;18.20;99.90
12287;DHT22;6206;53.100;11.098;2022-10-16T10:26:39;18.30;99.90
12287;DHT22;6206;53.100;11.098;2022-10-16T10:29:14;18.30;99.90
12287;DHT22;6206;53.100;11.098;2022-10-16T10:31:47;18.50;99.90
12287;DHT22;6206;53.100;11.098;2022-10-16T10:34:26;18.60;99.90
12287;DHT22;6206;53.100;11.098;2022-10-16T10:37:02;18.80;99.90
12287;DHT22;6206;53.100;11.098;2022-10-16T10:39:35;18.60;99.90
12287;DHT22;6206;53.100;11.098;2022-10-16T10:42:17;18.60;99.90
12287;DHT22;6206;53.100;11.098;2022-10-16T10:44:57;19.90;99.90
12287;DHT22;6206;53.100;11.098;2022-10-16T10:47:34;18.60;99.90
12287;DHT22;6206;53.100;11.098;2022-10-16T10:50:10;18.60;99.90
12287;DHT22;6206;53.100;11.098;2022-10-16T10:52:47;18.80;99.90
12287;DHT22;6206;53.100;11.098;2022-10-16T10:55:23;19.20;99.90
12287;DHT22;6206;53.100;11.098;2022-10-16T10:58:15;19.20;99.90
12287;DHT22;6206;53.100;11.098;2022-10-16T11:00:51;19.30;99.90
12287;DHT22;6206;53.100;11.098;2022-10-16T11:03:31;19.40;99.90
12287;DHT22;6206;53.100;11.098;2022-10-16T11:06:06;19.10;99.90
12287;DHT22;6206;53.100;11.098;2022-10-16T11:08:36;19.10;99.90
12287;DHT22;6206;53.100;11.098;2022-10-16T11:11:10;20.60;99.90
12287;DHT22;6206;53.100;11.098;2022-10-16T11:13:43;19.50;99.90
12287;DHT22;6206;53.100;11.098;2022-10-16T11:16:18;19.30;99.90
12287;DHT22;6206;53.100;11.098;2022-10-16T11:18:51;19.40;99.90
12287;DHT22;6206;53.100;11.098;2022-10-16T11:21:23;19.40;99.90
12287;DHT22;6206;53.100;11.098;2022-10-16T11:23:55;19.30;99.90
12287;DHT22;6206;53.100;11.098;2022-10-16T11:26:26;19.20;99.90
12287;DHT22;6206;53.100;11.098;2022-10-16T11:28:55;19.50;99.90
12287;DHT22;6206;53.100;11.098;2022-10-16T11:31:28;19.30;99.90
12287;DHT22;6206;53.100;11.098;2022-10-16T11:34:02;19.50;99.90
12287;DHT22;6206;53.100;11.098;2022-10-16T11:36:38;19.60;99.90
12287;DHT22;6206;53.100;11.098;2022-10-16T11:39:16;19.90;99.90
12287;DHT22;6206;53.100;11.098;2022-10-16T11:41:48;19.70;99.90
12287;DHT22;6206;53.100;11.098;2022-10-16T11:44:38;19.70;99.90
12287;DHT22;6206;53.100;11.098;2022-10-16T11:47:15;19.80;99.90
12287;DHT22;6206;53.100;11.098;2022-10-16T11:49:47;19.60;99.90
12287;DHT22;6206;53.100;11.098;2022-10-16T11:52:20;19.70;99.90
12287;DHT22;6206;53.100;11.098;2022-10-16T11:54:53;19.70;99.90
12287;DHT22;6206;53.100;11.098;2022-10-16T11:57:24;19.70;99.90
12287;DHT22;6206;53.100;11.098;2022-10-16T11:59:55;19.40;99.90
12287;DHT22;6206;53.100;11.098;2022-10-16T12:02:38;19.00;99.90
12287;DHT22;6206;53.100;11.098;2022-10-16T12:05:18;19.80;99.90
12287;DHT22;6206;53.100;11.098;2022-10-16T12:07:52;19.80;99.90
12287;DHT22;6206;53.100;11.098;2022-10-16T12:10:25;19.70;99.90
12287;DHT22;6206;53.100;11.098;2022-10-16T12:12:53;19.70;99.90
12287;DHT22;6206;53.100;11.098;2022-10-16T12:15:23;20.00;99.90
12287;DHT22;6206;53.100;11.098;2022-10-16T12:17:51;19.50;99.90
12287;DHT22;6206;53.100;11.098;2022-10-16T12:20:29;19.70;99.90
12287;DHT22;6206;53.100;11.098;2022-10-16T12:23:00;19.70;99.90
12287;DHT22;6206;53.100;11.098;2022-10-16T12:25:29;19.40;99.90
12287;DHT22;6206;53.100;11.098;2022-10-16T12:28:02;19.90;99.90
12287;DHT22;6206;53.100;11.098;2022-10-16T12:30:31;20.10;99.90
12287;DHT22;6206;53.100;11.098;2022-10-16T12:33:00;19.70;99.90
12287;DHT22;6206;53.100;11.098;2022-10-16T12:35:30;20.00;99.90
12287;DHT22;6206;53.100;11.098;2022-10-16T12:38:07;20.10;99.90
12287;DHT22;6206;53.100;11.098;2022-10-16T12:40:37;20.00;99.90
12287;DHT22;6206;53.100;11.098;2022-10-16T12:43:12;19.80;99.90
12287;DHT22;6206;53.100;11.098;2022-10-16T12:45:39;20.20;99.90
12287;DHT22;6206;53.100;11.098;2022-10-16T12:48:20;19.60;99.90
12287;DHT22;6206;53.100;11.098;2022-10-16T12:50:48;19.40;99.90
12287;DHT22;6206;53.100;11.098;2022-10-16T12:53:21;19.30;99.90
12287;DHT22;6206;53.100;11.098;2022-10-16T12:55:58;19.40;99.90
12287;DHT22;6206;53.100;11.098;2022-10-16T12:58:41;19.20;99.90
12287;DHT22;6206;53.100;11.098;2022-10-16T13:01:21;19.40;99.90
12287;DHT22;6206;53.100;11.098;2022-10-16T13:04:05;19.50;99.90
12287;DHT22;6206;53.100;11.098;2022-10-16T13:06:41;19.50;99.90
12287;DHT22;6206;53.100;11.098;2022-10-16T13:09:35;19.50;99.90
12287;DHT22;6206;53.100;11.098;2022-10-16T13:12:17;19.60;99.90
12287;DHT22;6206;53.100;11.098;2022-10-16T13:15:15;19.70;99.90
12287;DHT22;6206;53.100;11.098;2022-10-16T13:17:52;19.50;99.90
12287;DHT22;6206;53.100;11.098;2022-10-16T13:20:26;19.40;99.90
12287;DHT22;6206;53.100;11.098;2022-10-16T13:23:02;19.70;99.90
12287;DHT22;6206;53.100;11.098;2022-10-16T13:25:39;19.70;99.90
12287;DHT22;6206;53.100;11.098;2022-10-16T13:28:09;19.60;99.90
12287;DHT22;6206;53.100;11.098;2022-10-16T13:30:39;19.90;99.90
12287;DHT22;6206;53.100;11.098;2022-10-16T13:33:12;20.00;99.90
12287;DHT22;6206;53.100;11.098;2022-10-16T13:35:48;20.00;99.90
12287;DHT22;6206;53.100;11.098;2022-10-16T13:38:17;20.20;99.90
12287;DHT22;6206;53.100;11.098;2022-10-16T13:40:54;20.80;99.90
12287;DHT22;6206;53.100;11.098;2022-10-16T13:43:26;20.00;99.90
12287;DHT22;6206;53.100;11.098;2022-10-16T13:45:55;19.90;99.90
12287;DHT22;6206;53.100;11.098;2022-10-16T13:48:22;20.00;99.90
12287;DHT22;6206;53.100;11.098;2022-10-16T13:51:04;20.30;99.90
12287;DHT22;6206;53.100;11.098;2022-10-16T13:53:33;21.70;99.90
12287;DHT22;6206;53.100;11.098;2022-10-16T13:56:03;23.00;99.90
12287;DHT22;6206;53.100;11.098;2022-10-16T13:58:30;24.00;99.90
12287;DHT22;6206;53.100;11.098;2022-10-16T14:00:59;24.50;99.90
12287;DHT22;6206;53.100;11.098;2022-10-16T14:03:27;24.20;99.90
12287;DHT22;6206;53.100;11.098;2022-10-16T14:05:56;23.70;99.90
12287;DHT22;6206;53.100;11.098;2022-10-16T14:08:24;22.70;99.90
12287;DHT22;6206;53.100;11.098;2022-10-16T14:10:52;21.30;99.90
12287;DHT22;6206;53.100;11.098;2022-10-16T14:13:23;21.30;99.90
12287;DHT22;6206;53.100;11.098;2022-10-16T14:15:52;22.30;99.90
12287;DHT22;6206;53.100;11.098;2022-10-16T14:18:22;20.80;99.90
12287;DHT22;6206;53.100;11.098;2022-10-16T14:20:50;21.00;99.90
12287;DHT22;6206;53.100;11.098;2022-10-16T14:23:21;21.00;99.90
12287;DHT22;6206;53.100;11.098;2022-10-16T14:25:48;21.60;99.90
12287;DHT22;6206;53.100;11.098;2022-10-16T14:28:17;20.40;99.90
12287;DHT22;6206;53.100;11.098;2022-10-16T14:30:52;19.90;99.90
12287;DHT22;6206;53.100;11.098;2022-10-16T14:33:22;19.80;99.90
12287;DHT22;6206;53.100;11.098;2022-10-16T14:36:01;19.80;99.90
12287;DHT22;6206;53.100;11.098;2022-10-16T14:38:29;19.40;99.90
12287;DHT22;6206;53.100;11.098;2022-10-16T14:40:57;19.30;99.90
12287;DHT22;6206;53.100;11.098;2022-10-16T14:43:31;19.20;99.90
12287;DHT22;6206;53.100;11.098;2022-10-16T14:46:01;19.20;99.90
12287;DHT22;6206;53.100;11.098;2022-10-16T14:48:28;19.10;99.90
12287;DHT22;6206;53.100;11.098;2022-10-16T14:50:55;19.30;99.90
12287;DHT22;6206;53.100;11.098;2022-10-16T14:53:22;19.30;99.90
12287;DHT22;6206;53.100;11.098;2022-10-16T14:55:49;19.10;99.90
12287;DHT22;6206;53.100;11.098;2022-10-16T14:58:18;19.20;99.90
12287;DHT22;6206;53.100;11.098;2022-10-16T15:00:45;19.30;99.90
12287;DHT22;6206;53.100;11.098;2022-10-16T15:03:13;19.20;99.90
12287;DHT22;6206;53.100;11.098;2022-10-16T15:05:40;19.20;99.90
12287;DHT22;6206;53.100;11.098;2022-10-16T15:08:07;19.00;99.90
12287;DHT22;6206;53.100;11.098;2022-10-16T15:10:38;19.10;99.90
12287;DHT22;6206;53.100;11.098;2022-10-16T15:13:05;19.10;99.90
12287;DHT22;6206;53.100;11.098;2022-10-16T15:15:35;19.00;99.90
12287;DHT22;6206;53.100;11.098;2022-10-16T15:18:03;19.00;99.90
12287;DHT22;6206;53.100;11.098;2022-10-16T15:20:33;18.80;99.90
12287;DHT22;6206;53.100;11.098;2022-10-16T15:23:00;18.50;99.90
12287;DHT22;6206;53.100;11.098;2022-10-16T15:25:34;18.70;99.90
12287;DHT22;6206;53.100;11.098;2022-10-16T15:28:02;18.60;99.90
12287;DHT22;6206;53.100;11.098;2022-10-16T15:30:30;18.60;99.90
12287;DHT22;6206;53.100;11.098;2022-10-16T15:32:56;18.50;99.90
12287;DHT22;6206;53.100;11.098;2022-10-16T15:35:23;18.60;99.90
12287;DHT22;6206;53.100;11.098;2022-10-16T15:37:51;18.40;99.90
12287;DHT22;6206;53.100;11.098;2022-10-16T15:40:19;17.90;99.90
12287;DHT22;6206;53.100;11.098;2022-10-16T15:42:46;18.30;99.90
12287;DHT22;6206;53.100;11.098;2022-10-16T15:45:13;18.30;99.90
12287;DHT22;6206;53.100;11.098;2022-10-16T15:47:41;18.10;99.90